Sandisfield, Massachusetts
Current Conditions -  °F | °C
As of 7:53 AM on Thursday 23 Oct 2014 (Local Time) from KBAF Reporting Station
Light Rain Light Rain  
Wind Chill: 50°   Ceiling: 1300
Heat Index: 50°   Visibility: 10mi
Dew Point: 46°   Wind: 17mph
Humidity: 86%   Direction: 10°N
Pressure: 29.71"   Gusts: 33mph
Location:  42.11°N, 73.14°W
Report Text: KBAF 231153Z 01015G29KT 10SM -RA BKN013 OVC095 10/08 A2971 RMK AO2 PK WND 01031/1135 SLP062 P0008 60054 70131 T01000078 10100 20094 55007
Loading
Personal Weather Stations






























Interactive Weather Map
Tropical Storm Tracking
New forecast layout! Learn more

10-Day Weather Forecast

Advertisements
Track Severe Weather on mobile